sensor_id;sensor_type;location;lat;lon;timestamp;P1;durP1;ratioP1;P2;durP2;ratioP2
9392;SDS011;4736;52.508;13.422;2023-06-14T00:01:56;4.03;;;3.83;;
9392;SDS011;4736;52.508;13.422;2023-06-14T00:04:59;4.23;;;3.93;;
9392;SDS011;4736;52.508;13.422;2023-06-14T00:08:02;3.70;;;3.50;;
9392;SDS011;4736;52.508;13.422;2023-06-14T00:11:08;3.87;;;3.77;;
9392;SDS011;4736;52.508;13.422;2023-06-14T00:14:11;4.03;;;3.93;;
9392;SDS011;4736;52.508;13.422;2023-06-14T00:17:16;4.80;;;3.97;;
9392;SDS011;4736;52.508;13.422;2023-06-14T00:20:19;3.70;;;3.60;;
9392;SDS011;4736;52.508;13.422;2023-06-14T00:23:23;3.70;;;3.60;;
9392;SDS011;4736;52.508;13.422;2023-06-14T00:26:26;4.43;;;4.00;;
9392;SDS011;4736;52.508;13.422;2023-06-14T00:29:30;4.33;;;4.10;;
9392;SDS011;4736;52.508;13.422;2023-06-14T00:32:34;4.60;;;4.30;;
9392;SDS011;4736;52.508;13.422;2023-06-14T00:35:38;4.10;;;4.00;;
9392;SDS011;4736;52.508;13.422;2023-06-14T00:38:41;4.90;;;4.50;;
9392;SDS011;4736;52.508;13.422;2023-06-14T00:41:44;4.77;;;4.37;;
9392;SDS011;4736;52.508;13.422;2023-06-14T00:44:47;4.10;;;3.90;;
9392;SDS011;4736;52.508;13.422;2023-06-14T00:47:52;4.37;;;4.20;;
9392;SDS011;4736;52.508;13.422;2023-06-14T00:50:59;5.07;;;4.80;;
9392;SDS011;4736;52.508;13.422;2023-06-14T00:54:05;4.70;;;4.30;;
9392;SDS011;4736;52.508;13.422;2023-06-14T00:57:08;5.60;;;5.20;;
9392;SDS011;4736;52.508;13.422;2023-06-14T01:00:13;5.17;;;4.87;;
9392;SDS011;4736;52.508;13.422;2023-06-14T01:03:18;5.47;;;5.07;;
9392;SDS011;4736;52.508;13.422;2023-06-14T01:06:33;6.17;;;5.60;;
9392;SDS011;4736;52.508;13.422;2023-06-14T01:09:46;5.57;;;5.17;;
9392;SDS011;4736;52.508;13.422;2023-06-14T01:12:58;4.90;;;4.60;;
9392;SDS011;4736;52.508;13.422;2023-06-14T01:16:06;5.30;;;5.10;;
9392;SDS011;4736;52.508;13.422;2023-06-14T01:19:12;5.87;;;5.50;;
9392;SDS011;4736;52.508;13.422;2023-06-14T01:22:16;5.30;;;5.00;;
9392;SDS011;4736;52.508;13.422;2023-06-14T01:25:21;6.00;;;5.60;;
9392;SDS011;4736;52.508;13.422;2023-06-14T01:28:25;5.67;;;5.20;;
9392;SDS011;4736;52.508;13.422;2023-06-14T01:31:33;6.17;;;5.53;;
9392;SDS011;4736;52.508;13.422;2023-06-14T01:34:42;6.13;;;5.53;;
9392;SDS011;4736;52.508;13.422;2023-06-14T01:37:46;6.23;;;5.80;;
9392;SDS011;4736;52.508;13.422;2023-06-14T01:40:51;5.80;;;5.60;;
9392;SDS011;4736;52.508;13.422;2023-06-14T01:43:57;6.30;;;5.37;;
9392;SDS011;4736;52.508;13.422;2023-06-14T01:47:01;5.63;;;5.43;;
9392;SDS011;4736;52.508;13.422;2023-06-14T01:50:05;6.13;;;5.73;;
9392;SDS011;4736;52.508;13.422;2023-06-14T01:53:09;5.57;;;5.27;;
9392;SDS011;4736;52.508;13.422;2023-06-14T01:56:14;5.17;;;4.97;;
9392;SDS011;4736;52.508;13.422;2023-06-14T01:59:17;7.13;;;5.93;;
9392;SDS011;4736;52.508;13.422;2023-06-14T02:02:21;6.30;;;5.90;;
9392;SDS011;4736;52.508;13.422;2023-06-14T02:05:24;6.20;;;5.60;;
9392;SDS011;4736;52.508;13.422;2023-06-14T02:08:28;6.20;;;5.67;;
9392;SDS011;4736;52.508;13.422;2023-06-14T02:11:32;6.63;;;6.03;;
9392;SDS011;4736;52.508;13.422;2023-06-14T02:14:35;6.00;;;5.60;;
9392;SDS011;4736;52.508;13.422;2023-06-14T02:17:39;5.77;;;5.63;;
9392;SDS011;4736;52.508;13.422;2023-06-14T02:20:42;5.93;;;5.63;;
9392;SDS011;4736;52.508;13.422;2023-06-14T02:23:45;8.00;;;5.87;;
9392;SDS011;4736;52.508;13.422;2023-06-14T02:26:50;6.00;;;5.60;;
9392;SDS011;4736;52.508;13.422;2023-06-14T02:29:54;6.87;;;6.43;;
9392;SDS011;4736;52.508;13.422;2023-06-14T02:32:57;6.77;;;6.17;;
9392;SDS011;4736;52.508;13.422;2023-06-14T02:36:00;12.67;;;9.00;;
9392;SDS011;4736;52.508;13.422;2023-06-14T02:39:07;6.73;;;6.23;;
9392;SDS011;4736;52.508;13.422;2023-06-14T02:42:13;7.03;;;6.43;;
9392;SDS011;4736;52.508;13.422;2023-06-14T02:45:16;6.70;;;6.30;;
9392;SDS011;4736;52.508;13.422;2023-06-14T02:48:19;6.70;;;6.30;;
9392;SDS011;4736;52.508;13.422;2023-06-14T02:51:23;7.43;;;6.63;;
9392;SDS011;4736;52.508;13.422;2023-06-14T02:54:26;6.90;;;6.60;;
9392;SDS011;4736;52.508;13.422;2023-06-14T02:57:30;6.60;;;6.07;;
9392;SDS011;4736;52.508;13.422;2023-06-14T03:00:34;6.77;;;5.90;;
9392;SDS011;4736;52.508;13.422;2023-06-14T03:03:37;5.83;;;5.43;;
9392;SDS011;4736;52.508;13.422;2023-06-14T03:06:40;6.97;;;6.57;;
9392;SDS011;4736;52.508;13.422;2023-06-14T03:09:45;7.37;;;6.87;;
9392;SDS011;4736;52.508;13.422;2023-06-14T03:12:51;7.47;;;6.70;;
9392;SDS011;4736;52.508;13.422;2023-06-14T03:15:54;7.10;;;6.70;;
9392;SDS011;4736;52.508;13.422;2023-06-14T03:18:57;6.63;;;6.20;;
9392;SDS011;4736;52.508;13.422;2023-06-14T03:22:00;5.73;;;5.53;;
9392;SDS011;4736;52.508;13.422;2023-06-14T03:25:04;6.40;;;6.10;;
9392;SDS011;4736;52.508;13.422;2023-06-14T03:28:09;6.47;;;6.17;;
9392;SDS011;4736;52.508;13.422;2023-06-14T03:31:12;8.17;;;7.40;;
9392;SDS011;4736;52.508;13.422;2023-06-14T03:34:16;7.20;;;6.70;;
9392;SDS011;4736;52.508;13.422;2023-06-14T03:37:20;7.37;;;6.77;;
9392;SDS011;4736;52.508;13.422;2023-06-14T03:40:23;6.47;;;6.10;;
9392;SDS011;4736;52.508;13.422;2023-06-14T03:43:30;6.63;;;6.30;;
9392;SDS011;4736;52.508;13.422;2023-06-14T03:46:33;5.63;;;5.33;;
9392;SDS011;4736;52.508;13.422;2023-06-14T03:49:36;7.10;;;6.60;;
9392;SDS011;4736;52.508;13.422;2023-06-14T03:52:39;6.40;;;5.90;;
9392;SDS011;4736;52.508;13.422;2023-06-14T03:55:44;7.60;;;6.90;;
9392;SDS011;4736;52.508;13.422;2023-06-14T03:58:52;6.57;;;6.10;;
9392;SDS011;4736;52.508;13.422;2023-06-14T04:01:55;7.27;;;6.87;;
9392;SDS011;4736;52.508;13.422;2023-06-14T04:04:58;10.63;;;7.57;;
9392;SDS011;4736;52.508;13.422;2023-06-14T04:08:02;7.10;;;6.60;;
9392;SDS011;4736;52.508;13.422;2023-06-14T04:11:10;7.23;;;6.67;;
9392;SDS011;4736;52.508;13.422;2023-06-14T04:14:14;5.97;;;5.67;;
9392;SDS011;4736;52.508;13.422;2023-06-14T04:17:17;6.00;;;5.80;;
9392;SDS011;4736;52.508;13.422;2023-06-14T04:20:21;7.30;;;6.70;;
9392;SDS011;4736;52.508;13.422;2023-06-14T04:23:25;7.73;;;7.13;;
9392;SDS011;4736;52.508;13.422;2023-06-14T04:26:29;7.40;;;7.00;;
9392;SDS011;4736;52.508;13.422;2023-06-14T04:29:36;7.53;;;6.90;;
9392;SDS011;4736;52.508;13.422;2023-06-14T04:32:40;8.17;;;7.33;;
9392;SDS011;4736;52.508;13.422;2023-06-14T04:35:43;7.20;;;6.70;;
9392;SDS011;4736;52.508;13.422;2023-06-14T04:38:49;7.87;;;7.27;;
9392;SDS011;4736;52.508;13.422;2023-06-14T04:41:55;6.87;;;6.47;;
9392;SDS011;4736;52.508;13.422;2023-06-14T04:45:03;8.27;;;7.43;;
9392;SDS011;4736;52.508;13.422;2023-06-14T04:48:10;7.33;;;6.83;;
9392;SDS011;4736;52.508;13.422;2023-06-14T04:51:14;6.90;;;6.40;;
9392;SDS011;4736;52.508;13.422;2023-06-14T04:54:17;9.10;;;7.53;;
9392;SDS011;4736;52.508;13.422;2023-06-14T04:57:21;8.17;;;7.47;;
9392;SDS011;4736;52.508;13.422;2023-06-14T05:00:27;6.67;;;6.17;;
9392;SDS011;4736;52.508;13.422;2023-06-14T05:03:31;8.10;;;6.27;;
9392;SDS011;4736;52.508;13.422;2023-06-14T05:06:35;7.57;;;6.97;;
9392;SDS011;4736;52.508;13.422;2023-06-14T05:09:39;7.27;;;6.87;;
9392;SDS011;4736;52.508;13.422;2023-06-14T05:12:42;6.47;;;6.00;;
9392;SDS011;4736;52.508;13.422;2023-06-14T05:15:47;7.53;;;7.00;;
9392;SDS011;4736;52.508;13.422;2023-06-14T05:18:50;7.20;;;6.60;;
9392;SDS011;4736;52.508;13.422;2023-06-14T05:21:53;7.83;;;7.23;;
9392;SDS011;4736;52.508;13.422;2023-06-14T05:24:56;7.33;;;6.83;;
9392;SDS011;4736;52.508;13.422;2023-06-14T05:28:00;9.37;;;7.20;;
9392;SDS011;4736;52.508;13.422;2023-06-14T05:31:04;8.53;;;6.70;;
9392;SDS011;4736;52.508;13.422;2023-06-14T05:34:07;6.77;;;6.27;;
9392;SDS011;4736;52.508;13.422;2023-06-14T05:37:11;5.83;;;5.60;;
9392;SDS011;4736;52.508;13.422;2023-06-14T05:40:14;8.00;;;7.23;;
9392;SDS011;4736;52.508;13.422;2023-06-14T05:43:18;8.43;;;7.20;;
9392;SDS011;4736;52.508;13.422;2023-06-14T05:46:23;7.00;;;6.47;;
9392;SDS011;4736;52.508;13.422;2023-06-14T05:49:27;7.67;;;6.87;;
9392;SDS011;4736;52.508;13.422;2023-06-14T05:52:30;9.07;;;6.70;;
9392;SDS011;4736;52.508;13.422;2023-06-14T05:55:34;8.20;;;7.40;;
9392;SDS011;4736;52.508;13.422;2023-06-14T05:58:38;9.33;;;7.40;;
9392;SDS011;4736;52.508;13.422;2023-06-14T06:01:43;6.73;;;6.30;;
9392;SDS011;4736;52.508;13.422;2023-06-14T06:04:46;10.10;;;7.27;;
9392;SDS011;4736;52.508;13.422;2023-06-14T06:07:49;8.17;;;7.57;;
9392;SDS011;4736;52.508;13.422;2023-06-14T06:10:52;8.93;;;6.70;;
9392;SDS011;4736;52.508;13.422;2023-06-14T06:13:56;9.90;;;7.10;;
9392;SDS011;4736;52.508;13.422;2023-06-14T06:17:00;8.10;;;7.30;;
9392;SDS011;4736;52.508;13.422;2023-06-14T06:20:04;6.97;;;6.30;;
9392;SDS011;4736;52.508;13.422;2023-06-14T06:23:09;7.33;;;6.70;;
9392;SDS011;4736;52.508;13.422;2023-06-14T06:26:13;7.53;;;6.80;;
9392;SDS011;4736;52.508;13.422;2023-06-14T06:29:16;10.03;;;7.07;;
9392;SDS011;4736;52.508;13.422;2023-06-14T06:32:20;6.90;;;6.20;;
9392;SDS011;4736;52.508;13.422;2023-06-14T06:35:23;7.97;;;6.93;;
9392;SDS011;4736;52.508;13.422;2023-06-14T06:38:27;7.20;;;6.60;;
9392;SDS011;4736;52.508;13.422;2023-06-14T06:41:30;7.70;;;6.93;;
9392;SDS011;4736;52.508;13.422;2023-06-14T06:44:33;7.60;;;7.00;;
9392;SDS011;4736;52.508;13.422;2023-06-14T06:47:38;9.47;;;6.73;;
9392;SDS011;4736;52.508;13.422;2023-06-14T06:50:41;7.00;;;6.50;;
9392;SDS011;4736;52.508;13.422;2023-06-14T06:53:48;7.53;;;6.90;;
9392;SDS011;4736;52.508;13.422;2023-06-14T06:56:54;7.40;;;6.30;;
9392;SDS011;4736;52.508;13.422;2023-06-14T06:59:58;7.37;;;6.67;;
9392;SDS011;4736;52.508;13.422;2023-06-14T07:03:02;6.80;;;5.93;;
9392;SDS011;4736;52.508;13.422;2023-06-14T07:06:05;6.63;;;6.13;;
9392;SDS011;4736;52.508;13.422;2023-06-14T07:09:09;9.10;;;6.53;;
9392;SDS011;4736;52.508;13.422;2023-06-14T07:12:14;8.03;;;6.57;;
9392;SDS011;4736;52.508;13.422;2023-06-14T07:15:17;9.10;;;6.40;;
9392;SDS011;4736;52.508;13.422;2023-06-14T07:18:22;10.50;;;7.40;;
9392;SDS011;4736;52.508;13.422;2023-06-14T07:21:25;8.20;;;6.77;;
9392;SDS011;4736;52.508;13.422;2023-06-14T07:24:28;10.80;;;6.90;;
9392;SDS011;4736;52.508;13.422;2023-06-14T07:27:31;10.63;;;7.00;;
9392;SDS011;4736;52.508;13.422;2023-06-14T07:30:35;8.97;;;7.67;;
9392;SDS011;4736;52.508;13.422;2023-06-14T07:33:39;7.13;;;6.53;;
9392;SDS011;4736;52.508;13.422;2023-06-14T07:36:43;7.97;;;7.17;;
9392;SDS011;4736;52.508;13.422;2023-06-14T07:39:46;6.47;;;5.97;;
9392;SDS011;4736;52.508;13.422;2023-06-14T07:42:50;6.60;;;5.87;;
9392;SDS011;4736;52.508;13.422;2023-06-14T07:45:55;7.50;;;6.27;;
9392;SDS011;4736;52.508;13.422;2023-06-14T07:49:11;7.00;;;6.27;;
9392;SDS011;4736;52.508;13.422;2023-06-14T07:52:14;5.40;;;5.20;;
9392;SDS011;4736;52.508;13.422;2023-06-14T07:55:17;5.87;;;5.43;;
9392;SDS011;4736;52.508;13.422;2023-06-14T07:58:20;8.50;;;5.90;;
9392;SDS011;4736;52.508;13.422;2023-06-14T08:01:23;6.23;;;5.47;;
9392;SDS011;4736;52.508;13.422;2023-06-14T08:04:28;7.93;;;6.10;;
9392;SDS011;4736;52.508;13.422;2023-06-14T08:07:32;9.07;;;5.67;;
9392;SDS011;4736;52.508;13.422;2023-06-14T08:10:35;8.20;;;6.07;;
9392;SDS011;4736;52.508;13.422;2023-06-14T08:13:38;5.60;;;5.20;;
9392;SDS011;4736;52.508;13.422;2023-06-14T08:16:41;9.87;;;5.60;;
9392;SDS011;4736;52.508;13.422;2023-06-14T08:19:46;5.60;;;5.10;;
9392;SDS011;4736;52.508;13.422;2023-06-14T08:22:49;8.87;;;5.40;;
9392;SDS011;4736;52.508;13.422;2023-06-14T08:25:56;11.73;;;5.67;;
9392;SDS011;4736;52.508;13.422;2023-06-14T08:28:59;5.30;;;4.77;;
9392;SDS011;4736;52.508;13.422;2023-06-14T08:32:03;5.63;;;5.00;;
9392;SDS011;4736;52.508;13.422;2023-06-14T08:35:08;7.13;;;4.90;;
9392;SDS011;4736;52.508;13.422;2023-06-14T08:38:11;7.03;;;5.00;;
9392;SDS011;4736;52.508;13.422;2023-06-14T08:41:17;9.70;;;5.00;;
9392;SDS011;4736;52.508;13.422;2023-06-14T08:44:24;5.07;;;4.67;;
9392;SDS011;4736;52.508;13.422;2023-06-14T08:47:28;5.00;;;4.60;;
9392;SDS011;4736;52.508;13.422;2023-06-14T08:50:43;9.67;;;5.20;;
9392;SDS011;4736;52.508;13.422;2023-06-14T08:53:51;7.83;;;4.93;;
9392;SDS011;4736;52.508;13.422;2023-06-14T08:56:59;4.67;;;4.40;;
9392;SDS011;4736;52.508;13.422;2023-06-14T09:00:02;6.67;;;4.70;;
9392;SDS011;4736;52.508;13.422;2023-06-14T09:03:13;8.60;;;4.73;;
9392;SDS011;4736;52.508;13.422;2023-06-14T09:06:18;6.20;;;4.70;;
9392;SDS011;4736;52.508;13.422;2023-06-14T09:09:25;5.90;;;4.90;;
9392;SDS011;4736;52.508;13.422;2023-06-14T09:12:28;5.17;;;4.60;;
9392;SDS011;4736;52.508;13.422;2023-06-14T09:15:32;5.10;;;4.60;;
9392;SDS011;4736;52.508;13.422;2023-06-14T09:18:37;5.00;;;4.60;;
9392;SDS011;4736;52.508;13.422;2023-06-14T09:21:43;4.67;;;4.27;;
9392;SDS011;4736;52.508;13.422;2023-06-14T09:24:50;7.10;;;4.30;;
9392;SDS011;4736;52.508;13.422;2023-06-14T09:27:55;4.90;;;4.60;;
9392;SDS011;4736;52.508;13.422;2023-06-14T09:30:58;4.23;;;3.97;;
9392;SDS011;4736;52.508;13.422;2023-06-14T09:34:02;5.73;;;4.60;;
9392;SDS011;4736;52.508;13.422;2023-06-14T09:37:07;4.90;;;4.50;;
9392;SDS011;4736;52.508;13.422;2023-06-14T09:40:10;4.47;;;3.87;;
9392;SDS011;4736;52.508;13.422;2023-06-14T09:43:14;6.10;;;4.90;;
9392;SDS011;4736;52.508;13.422;2023-06-14T09:46:17;5.73;;;5.20;;
9392;SDS011;4736;52.508;13.422;2023-06-14T09:49:21;21.03;;;6.73;;
9392;SDS011;4736;52.508;13.422;2023-06-14T09:52:28;11.50;;;6.30;;
9392;SDS011;4736;52.508;13.422;2023-06-14T09:55:33;6.30;;;4.80;;
9392;SDS011;4736;52.508;13.422;2023-06-14T09:58:39;10.23;;;4.90;;
9392;SDS011;4736;52.508;13.422;2023-06-14T10:01:43;4.80;;;4.40;;
9392;SDS011;4736;52.508;13.422;2023-06-14T10:04:50;6.83;;;4.93;;
9392;SDS011;4736;52.508;13.422;2023-06-14T10:08:04;6.83;;;4.93;;
9392;SDS011;4736;52.508;13.422;2023-06-14T10:11:11;5.23;;;4.53;;
9392;SDS011;4736;52.508;13.422;2023-06-14T10:14:15;5.07;;;4.70;;
9392;SDS011;4736;52.508;13.422;2023-06-14T10:17:25;8.80;;;5.20;;
9392;SDS011;4736;52.508;13.422;2023-06-14T10:20:36;15.83;;;5.03;;
9392;SDS011;4736;52.508;13.422;2023-06-14T10:23:45;6.53;;;4.90;;
9392;SDS011;4736;52.508;13.422;2023-06-14T10:26:51;5.10;;;4.63;;
9392;SDS011;4736;52.508;13.422;2023-06-14T10:30:04;5.43;;;4.67;;
9392;SDS011;4736;52.508;13.422;2023-06-14T10:33:09;5.00;;;4.50;;
9392;SDS011;4736;52.508;13.422;2023-06-14T10:36:28;6.93;;;4.07;;
9392;SDS011;4736;52.508;13.422;2023-06-14T10:39:38;8.60;;;4.87;;
9392;SDS011;4736;52.508;13.422;2023-06-14T10:42:44;9.23;;;4.80;;
9392;SDS011;4736;52.508;13.422;2023-06-14T10:49:19;5.13;;;4.63;;
9392;SDS011;4736;52.508;13.422;2023-06-14T10:52:40;5.90;;;4.57;;
9392;SDS011;4736;52.508;13.422;2023-06-14T10:55:48;5.67;;;4.30;;
9392;SDS011;4736;52.508;13.422;2023-06-14T10:58:51;4.73;;;4.30;;
9392;SDS011;4736;52.508;13.422;2023-06-14T11:01:57;5.57;;;5.07;;
9392;SDS011;4736;52.508;13.422;2023-06-14T11:05:14;5.07;;;4.67;;
9392;SDS011;4736;52.508;13.422;2023-06-14T11:12:14;4.43;;;4.10;;
9392;SDS011;4736;52.508;13.422;2023-06-14T11:15:20;5.67;;;5.13;;
9392;SDS011;4736;52.508;13.422;2023-06-14T11:18:23;7.53;;;4.73;;
9392;SDS011;4736;52.508;13.422;2023-06-14T11:21:29;6.20;;;4.80;;
9392;SDS011;4736;52.508;13.422;2023-06-14T11:24:35;4.30;;;4.10;;
9392;SDS011;4736;52.508;13.422;2023-06-14T11:27:41;7.43;;;4.67;;
9392;SDS011;4736;52.508;13.422;2023-06-14T11:30:44;5.30;;;4.50;;
9392;SDS011;4736;52.508;13.422;2023-06-14T11:33:49;5.87;;;4.83;;
9392;SDS011;4736;52.508;13.422;2023-06-14T11:36:52;6.00;;;4.33;;
9392;SDS011;4736;52.508;13.422;2023-06-14T11:39:55;4.70;;;4.13;;
9392;SDS011;4736;52.508;13.422;2023-06-14T11:43:01;5.13;;;4.60;;
9392;SDS011;4736;52.508;13.422;2023-06-14T11:46:11;6.17;;;4.50;;
9392;SDS011;4736;52.508;13.422;2023-06-14T11:49:16;4.83;;;4.40;;
9392;SDS011;4736;52.508;13.422;2023-06-14T11:52:19;5.43;;;4.60;;
9392;SDS011;4736;52.508;13.422;2023-06-14T11:55:24;6.93;;;4.37;;
9392;SDS011;4736;52.508;13.422;2023-06-14T11:58:30;6.83;;;4.53;;
9392;SDS011;4736;52.508;13.422;2023-06-14T12:01:37;6.93;;;3.93;;
9392;SDS011;4736;52.508;13.422;2023-06-14T12:04:42;4.57;;;4.27;;
9392;SDS011;4736;52.508;13.422;2023-06-14T12:07:46;4.40;;;4.10;;
9392;SDS011;4736;52.508;13.422;2023-06-14T12:10:50;5.83;;;4.67;;
9392;SDS011;4736;52.508;13.422;2023-06-14T12:13:56;9.50;;;5.47;;
9392;SDS011;4736;52.508;13.422;2023-06-14T12:17:03;7.57;;;4.87;;
9392;SDS011;4736;52.508;13.422;2023-06-14T12:20:09;5.73;;;5.27;;
9392;SDS011;4736;52.508;13.422;2023-06-14T12:23:15;6.60;;;4.77;;
9392;SDS011;4736;52.508;13.422;2023-06-14T12:26:21;8.53;;;4.60;;
9392;SDS011;4736;52.508;13.422;2023-06-14T12:29:30;5.67;;;5.00;;
9392;SDS011;4736;52.508;13.422;2023-06-14T12:32:34;6.37;;;4.80;;
9392;SDS011;4736;52.508;13.422;2023-06-14T12:35:38;5.23;;;4.70;;
9392;SDS011;4736;52.508;13.422;2023-06-14T12:38:41;6.77;;;4.63;;
9392;SDS011;4736;52.508;13.422;2023-06-14T12:41:44;5.77;;;4.17;;
9392;SDS011;4736;52.508;13.422;2023-06-14T12:44:48;4.43;;;3.90;;
9392;SDS011;4736;52.508;13.422;2023-06-14T12:47:51;8.17;;;4.30;;
9392;SDS011;4736;52.508;13.422;2023-06-14T12:50:55;4.77;;;3.97;;
9392;SDS011;4736;52.508;13.422;2023-06-14T12:53:58;4.23;;;3.83;;
9392;SDS011;4736;52.508;13.422;2023-06-14T12:57:01;4.37;;;4.10;;
9392;SDS011;4736;52.508;13.422;2023-06-14T13:00:07;7.73;;;4.30;;
9392;SDS011;4736;52.508;13.422;2023-06-14T13:03:12;5.17;;;4.47;;
9392;SDS011;4736;52.508;13.422;2023-06-14T13:06:15;8.63;;;4.47;;
9392;SDS011;4736;52.508;13.422;2023-06-14T13:09:19;4.87;;;4.43;;
9392;SDS011;4736;52.508;13.422;2023-06-14T13:12:22;10.27;;;4.40;;
9392;SDS011;4736;52.508;13.422;2023-06-14T13:15:27;13.23;;;4.87;;
9392;SDS011;4736;52.508;13.422;2023-06-14T13:18:30;7.63;;;5.10;;
9392;SDS011;4736;52.508;13.422;2023-06-14T13:21:33;5.10;;;4.70;;
9392;SDS011;4736;52.508;13.422;2023-06-14T13:24:36;9.00;;;4.43;;
9392;SDS011;4736;52.508;13.422;2023-06-14T13:27:45;7.37;;;5.10;;
9392;SDS011;4736;52.508;13.422;2023-06-14T13:30:50;9.23;;;4.60;;
9392;SDS011;4736;52.508;13.422;2023-06-14T13:33:53;6.40;;;4.50;;
9392;SDS011;4736;52.508;13.422;2023-06-14T13:36:56;4.70;;;3.93;;
9392;SDS011;4736;52.508;13.422;2023-06-14T13:40:00;9.60;;;4.40;;
9392;SDS011;4736;52.508;13.422;2023-06-14T13:43:04;4.83;;;4.03;;
9392;SDS011;4736;52.508;13.422;2023-06-14T13:46:08;8.17;;;4.50;;
9392;SDS011;4736;52.508;13.422;2023-06-14T13:49:53;5.37;;;4.10;;
9392;SDS011;4736;52.508;13.422;2023-06-14T13:53:14;4.83;;;4.30;;
9392;SDS011;4736;52.508;13.422;2023-06-14T13:56:34;6.30;;;4.37;;
9392;SDS011;4736;52.508;13.422;2023-06-14T13:59:55;6.77;;;4.43;;
9392;SDS011;4736;52.508;13.422;2023-06-14T14:03:21;11.80;;;4.53;;
9392;SDS011;4736;52.508;13.422;2023-06-14T14:06:43;9.77;;;4.77;;
9392;SDS011;4736;52.508;13.422;2023-06-14T14:10:04;4.83;;;4.53;;
9392;SDS011;4736;52.508;13.422;2023-06-14T14:13:26;7.60;;;4.70;;
9392;SDS011;4736;52.508;13.422;2023-06-14T14:16:47;5.60;;;4.40;;
9392;SDS011;4736;52.508;13.422;2023-06-14T14:20:10;12.03;;;5.00;;
9392;SDS011;4736;52.508;13.422;2023-06-14T14:23:31;4.93;;;4.37;;
9392;SDS011;4736;52.508;13.422;2023-06-14T14:26:52;5.93;;;4.50;;
9392;SDS011;4736;52.508;13.422;2023-06-14T14:30:13;8.60;;;4.77;;
9392;SDS011;4736;52.508;13.422;2023-06-14T14:33:18;7.00;;;6.30;;
9392;SDS011;4736;52.508;13.422;2023-06-14T14:36:23;5.93;;;4.60;;
9392;SDS011;4736;52.508;13.422;2023-06-14T14:39:26;8.60;;;4.83;;
9392;SDS011;4736;52.508;13.422;2023-06-14T14:42:31;6.00;;;4.43;;
9392;SDS011;4736;52.508;13.422;2023-06-14T14:45:34;6.90;;;4.63;;
9392;SDS011;4736;52.508;13.422;2023-06-14T14:48:37;6.30;;;4.17;;
9392;SDS011;4736;52.508;13.422;2023-06-14T14:51:42;4.60;;;4.40;;
9392;SDS011;4736;52.508;13.422;2023-06-14T14:54:46;6.60;;;4.83;;
9392;SDS011;4736;52.508;13.422;2023-06-14T14:57:51;5.80;;;4.97;;
9392;SDS011;4736;52.508;13.422;2023-06-14T15:00:57;10.07;;;4.37;;
9392;SDS011;4736;52.508;13.422;2023-06-14T15:04:00;5.07;;;4.60;;
9392;SDS011;4736;52.508;13.422;2023-06-14T15:07:05;4.50;;;4.37;;
9392;SDS011;4736;52.508;13.422;2023-06-14T15:10:11;5.47;;;4.80;;
9392;SDS011;4736;52.508;13.422;2023-06-14T15:13:15;5.37;;;4.37;;
9392;SDS011;4736;52.508;13.422;2023-06-14T15:16:18;6.83;;;4.03;;
9392;SDS011;4736;52.508;13.422;2023-06-14T15:19:22;5.13;;;4.40;;
9392;SDS011;4736;52.508;13.422;2023-06-14T15:22:26;4.73;;;4.23;;
9392;SDS011;4736;52.508;13.422;2023-06-14T15:25:30;4.23;;;3.83;;
9392;SDS011;4736;52.508;13.422;2023-06-14T15:28:34;4.20;;;3.90;;
9392;SDS011;4736;52.508;13.422;2023-06-14T15:31:37;5.67;;;4.10;;
9392;SDS011;4736;52.508;13.422;2023-06-14T15:34:40;4.90;;;4.40;;
9392;SDS011;4736;52.508;13.422;2023-06-14T15:37:47;6.77;;;4.23;;
9392;SDS011;4736;52.508;13.422;2023-06-14T15:40:53;4.17;;;3.80;;
9392;SDS011;4736;52.508;13.422;2023-06-14T15:43:57;4.70;;;4.30;;
9392;SDS011;4736;52.508;13.422;2023-06-14T15:47:02;3.90;;;3.70;;
9392;SDS011;4736;52.508;13.422;2023-06-14T15:50:05;4.80;;;4.30;;
9392;SDS011;4736;52.508;13.422;2023-06-14T15:53:11;9.97;;;4.53;;
9392;SDS011;4736;52.508;13.422;2023-06-14T15:56:14;4.50;;;4.13;;
9392;SDS011;4736;52.508;13.422;2023-06-14T15:59:17;7.53;;;4.37;;
9392;SDS011;4736;52.508;13.422;2023-06-14T16:02:20;5.93;;;4.40;;
9392;SDS011;4736;52.508;13.422;2023-06-14T16:05:24;5.60;;;4.37;;
9392;SDS011;4736;52.508;13.422;2023-06-14T16:08:28;4.73;;;4.30;;
9392;SDS011;4736;52.508;13.422;2023-06-14T16:11:39;4.60;;;4.20;;
9392;SDS011;4736;52.508;13.422;2023-06-14T16:14:43;4.50;;;4.27;;
9392;SDS011;4736;52.508;13.422;2023-06-14T16:17:46;6.50;;;4.73;;
9392;SDS011;4736;52.508;13.422;2023-06-14T16:20:49;6.33;;;4.57;;
9392;SDS011;4736;52.508;13.422;2023-06-14T16:23:56;5.63;;;5.03;;
9392;SDS011;4736;52.508;13.422;2023-06-14T16:26:59;4.93;;;4.43;;
9392;SDS011;4736;52.508;13.422;2023-06-14T16:30:03;6.93;;;4.70;;
9392;SDS011;4736;52.508;13.422;2023-06-14T16:33:08;4.90;;;4.50;;
9392;SDS011;4736;52.508;13.422;2023-06-14T16:36:11;6.63;;;4.40;;
9392;SDS011;4736;52.508;13.422;2023-06-14T16:39:16;7.13;;;4.50;;
9392;SDS011;4736;52.508;13.422;2023-06-14T16:42:19;5.00;;;4.40;;
9392;SDS011;4736;52.508;13.422;2023-06-14T16:45:22;6.07;;;4.70;;
9392;SDS011;4736;52.508;13.422;2023-06-14T16:48:25;8.50;;;4.63;;
9392;SDS011;4736;52.508;13.422;2023-06-14T16:51:28;7.47;;;4.30;;
9392;SDS011;4736;52.508;13.422;2023-06-14T16:54:33;4.77;;;4.40;;
9392;SDS011;4736;52.508;13.422;2023-06-14T16:57:37;5.77;;;4.70;;
9392;SDS011;4736;52.508;13.422;2023-06-14T17:00:40;8.90;;;4.50;;
9392;SDS011;4736;52.508;13.422;2023-06-14T17:03:43;5.17;;;4.70;;
9392;SDS011;4736;52.508;13.422;2023-06-14T17:06:47;5.33;;;4.10;;
9392;SDS011;4736;52.508;13.422;2023-06-14T17:09:51;4.97;;;4.30;;
9392;SDS011;4736;52.508;13.422;2023-06-14T17:12:54;8.20;;;4.37;;
9392;SDS011;4736;52.508;13.422;2023-06-14T17:15:58;5.10;;;4.33;;
9392;SDS011;4736;52.508;13.422;2023-06-14T17:19:02;7.83;;;4.60;;
9392;SDS011;4736;52.508;13.422;2023-06-14T17:22:06;4.53;;;3.77;;
9392;SDS011;4736;52.508;13.422;2023-06-14T17:25:10;4.20;;;4.00;;
9392;SDS011;4736;52.508;13.422;2023-06-14T17:28:13;7.97;;;4.60;;
9392;SDS011;4736;52.508;13.422;2023-06-14T17:31:18;6.00;;;4.97;;
9392;SDS011;4736;52.508;13.422;2023-06-14T17:34:21;4.57;;;4.33;;
9392;SDS011;4736;52.508;13.422;2023-06-14T17:37:24;4.63;;;4.33;;
9392;SDS011;4736;52.508;13.422;2023-06-14T17:40:30;6.43;;;4.90;;
9392;SDS011;4736;52.508;13.422;2023-06-14T17:43:49;5.50;;;4.47;;
9392;SDS011;4736;52.508;13.422;2023-06-14T17:46:53;5.63;;;5.10;;
9392;SDS011;4736;52.508;13.422;2023-06-14T17:49:56;7.93;;;4.90;;
9392;SDS011;4736;52.508;13.422;2023-06-14T17:53:01;5.27;;;4.77;;
9392;SDS011;4736;52.508;13.422;2023-06-14T17:56:08;8.50;;;5.60;;
9392;SDS011;4736;52.508;13.422;2023-06-14T17:59:11;7.20;;;4.97;;
9392;SDS011;4736;52.508;13.422;2023-06-14T18:02:14;7.03;;;4.70;;
9392;SDS011;4736;52.508;13.422;2023-06-14T18:05:17;5.20;;;4.77;;
9392;SDS011;4736;52.508;13.422;2023-06-14T18:08:20;5.33;;;4.60;;
9392;SDS011;4736;52.508;13.422;2023-06-14T18:11:25;9.67;;;4.80;;
9392;SDS011;4736;52.508;13.422;2023-06-14T18:14:29;4.80;;;4.40;;
9392;SDS011;4736;52.508;13.422;2023-06-14T18:17:32;6.83;;;4.67;;
9392;SDS011;4736;52.508;13.422;2023-06-14T18:20:35;4.60;;;4.40;;
9392;SDS011;4736;52.508;13.422;2023-06-14T18:23:41;5.17;;;4.37;;
9392;SDS011;4736;52.508;13.422;2023-06-14T18:26:46;5.70;;;4.23;;
9392;SDS011;4736;52.508;13.422;2023-06-14T18:29:49;4.43;;;4.20;;
9392;SDS011;4736;52.508;13.422;2023-06-14T18:32:53;4.30;;;3.90;;
9392;SDS011;4736;52.508;13.422;2023-06-14T18:35:56;4.77;;;4.30;;
9392;SDS011;4736;52.508;13.422;2023-06-14T18:38:59;7.20;;;4.30;;
9392;SDS011;4736;52.508;13.422;2023-06-14T18:42:05;4.17;;;3.90;;
9392;SDS011;4736;52.508;13.422;2023-06-14T18:45:10;4.33;;;4.23;;
9392;SDS011;4736;52.508;13.422;2023-06-14T18:48:13;8.67;;;4.50;;
9392;SDS011;4736;52.508;13.422;2023-06-14T18:51:16;12.23;;;4.33;;
9392;SDS011;4736;52.508;13.422;2023-06-14T18:54:19;4.53;;;4.03;;
9392;SDS011;4736;52.508;13.422;2023-06-14T18:57:24;4.63;;;4.37;;
9392;SDS011;4736;52.508;13.422;2023-06-14T19:00:27;6.37;;;4.53;;